地図

経路データ

SID SEASON NUMBER BASIN SUBBASIN NAME ISO_TIME NATURE LAT LON WMO_WIND WMO_PRES WMO_AGENCY TRACK_TYPE DIST2LAND LANDFALL IFLAG USA_AGENCY USA_ATCF_ID USA_LAT USA_LON USA_RECORD USA_STATUS USA_WIND USA_PRES USA_SSHS USA_R34_NE USA_R34_SE USA_R34_SW USA_R34_NW USA_R50_NE USA_R50_SE USA_R50_SW USA_R50_NW USA_R64_NE USA_R64_SE USA_R64_SW USA_R64_NW USA_POCI USA_ROCI USA_RMW USA_EYE TOKYO_LAT TOKYO_LON TOKYO_GRADE TOKYO_WIND TOKYO_PRES TOKYO_R50_DIR TOKYO_R50_LONG TOKYO_R50_SHORT TOKYO_R30_DIR TOKYO_R30_LONG TOKYO_R30_SHORT TOKYO_LAND CMA_LAT CMA_LON CMA_CAT CMA_WIND CMA_PRES HKO_LAT HKO_LON HKO_CAT HKO_WIND HKO_PRES NEWDELHI_LAT NEWDELHI_LON NEWDELHI_GRADE NEWDELHI_WIND NEWDELHI_PRES NEWDELHI_CI NEWDELHI_DP NEWDELHI_POCI REUNION_LAT REUNION_LON REUNION_TYPE REUNION_WIND REUNION_PRES REUNION_TNUM REUNION_CI REUNION_RMW REUNION_R34_NE REUNION_R34_SE REUNION_R34_SW REUNION_R34_NW REUNION_R50_NE REUNION_R50_SE REUNION_R50_SW REUNION_R50_NW REUNION_R64_NE REUNION_R64_SE REUNION_R64_SW REUNION_R64_NW BOM_LAT BOM_LON BOM_TYPE BOM_WIND BOM_PRES BOM_TNUM BOM_CI BOM_RMW BOM_R34_NE BOM_R34_SE BOM_R34_SW BOM_R34_NW BOM_R50_NE BOM_R50_SE BOM_R50_SW BOM_R50_NW BOM_R64_NE BOM_R64_SE BOM_R64_SW BOM_R64_NW BOM_ROCI BOM_POCI BOM_EYE BOM_POS_METHOD BOM_PRES_METHOD NADI_LAT NADI_LON NADI_CAT NADI_WIND NADI_PRES WELLINGTON_LAT WELLINGTON_LON WELLINGTON_WIND WELLINGTON_PRES DS824_LAT DS824_LON DS824_STAGE DS824_WIND DS824_PRES TD9636_LAT TD9636_LON TD9636_STAGE TD9636_WIND TD9636_PRES TD9635_LAT TD9635_LON TD9635_WIND TD9635_PRES TD9635_ROCI NEUMANN_LAT NEUMANN_LON NEUMANN_CLASS NEUMANN_WIND NEUMANN_PRES MLC_LAT MLC_LON MLC_CLASS MLC_WIND MLC_PRES USA_GUST BOM_GUST BOM_GUST_PER REUNION_GUST REUNION_GUST_PER USA_SEAHGT USA_SEARAD_NE USA_SEARAD_SE USA_SEARAD_SW USA_SEARAD_NW STORM_SPEED STORM_DIR
1984267N31302 1984 85 NA NA HORTENSE 1984-09-23 00:00:00 SS 31.3000 -58.3000 30 1009 hurdat_atl main 1490 1490 O_____________ hurdat_atl AL141984 31.3000 -58.3000 SD 30 1009 -2 7 211
1984267N31302 1984 85 NA NA HORTENSE 1984-09-23 03:00:00 SS 31.0076 -58.5052 main 1514 1514 P_____________ AL141984 31.0076 -58.5052 SD 30 1008 -2 7 210
1984267N31302 1984 85 NA NA HORTENSE 1984-09-23 06:00:00 SS 30.7000 -58.7000 30 1007 hurdat_atl main 1539 1501 O_____________ hurdat_atl AL141984 30.7000 -58.7000 SD 30 1007 -2 7 206
1984267N31302 1984 85 NA NA HORTENSE 1984-09-23 09:00:00 SS 30.3650 -58.8725 main 1501 1457 P_____________ AL141984 30.3650 -58.8725 SD 30 1006 -2 7 200
1984267N31302 1984 85 NA NA HORTENSE 1984-09-23 12:00:00 SS 30.0000 -59.0000 30 1005 hurdat_atl main 1457 1414 O_____________ hurdat_atl AL141984 30.0000 -59.0000 SD 30 1005 -2 8 192
1984267N31302 1984 85 NA NA HORTENSE 1984-09-23 15:00:00 SS 29.5925 -59.0648 main 1414 1375 P_____________ AL141984 29.5925 -59.0648 SD 32 1003 -2 8 186
1984267N31302 1984 85 NA NA HORTENSE 1984-09-23 18:00:00 SS 29.2000 -59.1000 35 1002 hurdat_atl main 1375 1346 O_____________ hurdat_atl AL141984 29.2000 -59.1000 SS 35 1002 -2 7 185
1984267N31302 1984 85 NA NA HORTENSE 1984-09-23 21:00:00 SS 28.8550 -59.1425 main 1346 1312 P_____________ AL141984 28.8550 -59.1425 SS 35 1001 -2 6 188
1984267N31302 1984 85 NA NA HORTENSE 1984-09-24 00:00:00 SS 28.6000 -59.2000 35 1000 hurdat_atl main 1312 1298 O_____________ hurdat_atl AL141984 28.6000 -59.2000 SS 35 1000 -2 4 196
1984267N31302 1984 85 NA NA HORTENSE 1984-09-24 03:00:00 SS 28.4550 -59.2775 main 1298 1283 P_____________ AL141984 28.4550 -59.2775 SS 35 999 -2 3 222
1984267N31302 1984 85 NA NA HORTENSE 1984-09-24 06:00:00 SS 28.4000 -59.4000 35 999 hurdat_atl main 1283 1273 O_____________ hurdat_atl AL141984 28.4000 -59.4000 SS 35 999 -2 3 254
1984267N31302 1984 85 NA NA HORTENSE 1984-09-24 09:00:00 SS 28.3776 -59.5925 main 1273 1264 P_____________ AL141984 28.3776 -59.5925 SS 37 999 -2 4 270
1984267N31302 1984 85 NA NA HORTENSE 1984-09-24 12:00:00 SS 28.4000 -59.8000 40 999 hurdat_atl main 1264 1254 O_____________ hurdat_atl AL141984 28.4000 -59.8000 SS 40 999 -2 3 280
1984267N31302 1984 85 NA NA HORTENSE 1984-09-24 15:00:00 SS 28.4350 -59.9650 main 1254 1254 P_____________ AL141984 28.4350 -59.9650 SS 40 999 -2 3 291
1984267N31302 1984 85 NA NA HORTENSE 1984-09-24 18:00:00 TS 28.5000 -60.1000 40 999 hurdat_atl main 1259 1255 O_____________ hurdat_atl AL141984 28.5000 -60.1000 TS 40 999 0 3 305
1984267N31302 1984 85 NA NA HORTENSE 1984-09-24 21:00:00 TS 28.5925 -60.2150 main 1265 1261 P_____________ AL141984 28.5925 -60.2150 TS 42 999 0 3 318
1984267N31302 1984 85 NA NA HORTENSE 1984-09-25 00:00:00 TS 28.7000 -60.3000 45 999 hurdat_atl main 1271 1271 O_____________ hurdat_atl AL141984 28.7000 -60.3000 TS 45 999 0 2 328
1984267N31302 1984 85 NA NA HORTENSE 1984-09-25 03:00:00 TS 28.7850 -60.3501 main 1276 1276 P_____________ AL141984 28.7850 -60.3501 TS 50 998 0 2 335
1984267N31302 1984 85 NA NA HORTENSE 1984-09-25 06:00:00 TS 28.9000 -60.4000 55 998 hurdat_atl main 1286 1286 O_____________ hurdat_atl AL141984 28.9000 -60.4000 TS 55 998 0 3 337
1984267N31302 1984 85 NA NA HORTENSE 1984-09-25 09:00:00 TS 29.0850 -60.4925 main 1303 1303 P_____________ AL141984 29.0850 -60.4925 TS 57 997 0 4 336
1984267N31302 1984 85 NA NA HORTENSE 1984-09-25 12:00:00 TS 29.3000 -60.6000 60 997 hurdat_atl main 1319 1319 O_____________ hurdat_atl AL141984 29.3000 -60.6000 TS 60 997 0 4 337
1984267N31302 1984 85 NA NA HORTENSE 1984-09-25 15:00:00 TS 29.4925 -60.6926 main 1336 1336 P_____________ AL141984 29.4925 -60.6926 TS 62 996 0 4 337
1984267N31302 1984 85 NA NA HORTENSE 1984-09-25 18:00:00 TS 29.7000 -60.8000 65 996 hurdat_atl main 1353 1353 O_____________ hurdat_atl AL141984 29.7000 -60.8000 HU 65 996 1 5 331
1984267N31302 1984 85 NA NA HORTENSE 1984-09-25 21:00:00 TS 29.9351 -60.9723 main 1366 1366 P_____________ AL141984 29.9351 -60.9723 HU 65 994 1 6 332
1984267N31302 1984 85 NA NA HORTENSE 1984-09-26 00:00:00 TS 30.2000 -61.1000 65 993 hurdat_atl main 1394 1394 O_____________ hurdat_atl AL141984 30.2000 -61.1000 HU 65 993 1 6 349
1984267N31302 1984 85 NA NA HORTENSE 1984-09-26 03:00:00 TS 30.5000 -61.0951 main 1426 1426 P_____________ AL141984 30.5000 -61.0951 HU 62 993 0 6 8
1984267N31302 1984 85 NA NA HORTENSE 1984-09-26 06:00:00 TS 30.8000 -61.0000 60 994 hurdat_atl main 1454 1440 O_____________ hurdat_atl AL141984 30.8000 -61.0000 TS 60 994 0 6 23
1984267N31302 1984 85 NA NA HORTENSE 1984-09-26 09:00:00 TS 31.0426 -60.8278 main 1445 1417 P_____________ AL141984 31.0426 -60.8278 TS 55 994 0 6 27
1984267N31302 1984 85 NA NA HORTENSE 1984-09-26 12:00:00 TS 31.3000 -60.7000 50 995 hurdat_atl main 1417 1382 O_____________ hurdat_atl AL141984 31.3000 -60.7000 TS 50 995 0 6 4
1984267N31302 1984 85 NA NA HORTENSE 1984-09-26 15:00:00 TS 31.6575 -60.7844 main 1371 1336 P_____________ AL141984 31.6575 -60.7844 TS 47 995 0 7 346
1984267N31302 1984 85 NA NA HORTENSE 1984-09-26 18:00:00 TS 32.0000 -60.9000 45 996 hurdat_atl main 1336 1315 O_____________ hurdat_atl AL141984 32.0000 -60.9000 TS 45 996 0 6 351
1984267N31302 1984 85 NA NA HORTENSE 1984-09-26 21:00:00 TS 32.2225 -60.8876 main 1315 1296 P_____________ AL141984 32.2225 -60.8876 TS 42 996 0 4 12
1984267N31302 1984 85 NA NA HORTENSE 1984-09-27 00:00:00 TS 32.4000 -60.8000 40 996 hurdat_atl main 1296 1277 O_____________ hurdat_atl AL141984 32.4000 -60.8000 TS 40 996 0 4 24
1984267N31302 1984 85 NA NA HORTENSE 1984-09-27 03:00:00 TS 32.6150 -60.6800 main 1277 1259 P_____________ AL141984 32.6150 -60.6800 TS 40 995 0 5 32
1984267N31302 1984 85 NA NA HORTENSE 1984-09-27 06:00:00 TS 32.8000 -60.5000 40 995 hurdat_atl main 1262 1254 O_____________ hurdat_atl AL141984 32.8000 -60.5000 TS 40 995 0 5 49
1984267N31302 1984 85 NA NA HORTENSE 1984-09-27 09:00:00 TS 32.9376 -60.2426 main 1260 1249 P_____________ AL141984 32.9376 -60.2426 TS 37 995 0 5 65
1984267N31302 1984 85 NA NA HORTENSE 1984-09-27 12:00:00 TS 33.0000 -60.0000 35 995 hurdat_atl main 1256 1256 O_____________ hurdat_atl AL141984 33.0000 -60.0000 TS 35 995 0 3 83
1984267N31302 1984 85 NA NA HORTENSE 1984-09-27 15:00:00 TS 32.9799 -59.8548 main 1259 1259 P_____________ AL141984 32.9799 -59.8548 TS 35 995 0 2 121
1984267N31302 1984 85 NA NA HORTENSE 1984-09-27 18:00:00 TS 32.9000 -59.8000 35 995 hurdat_atl main 1273 1273 O_____________ hurdat_atl AL141984 32.9000 -59.8000 TS 35 995 0 2 165
1984267N31302 1984 85 NA NA HORTENSE 1984-09-27 21:00:00 TS 32.8225 -59.8124 main 1283 1280 P_____________ AL141984 32.8225 -59.8124 TS 35 995 0 2 205
1984267N31302 1984 85 NA NA HORTENSE 1984-09-28 00:00:00 TS 32.7000 -59.9000 35 995 hurdat_atl main 1290 1290 O_____________ hurdat_atl AL141984 32.7000 -59.9000 TS 35 995 0 3 208
1984267N31302 1984 85 NA NA HORTENSE 1984-09-28 03:00:00 TS 32.5298 -59.9972 main 1308 1308 P_____________ AL141984 32.5298 -59.9972 TS 35 995 0 5 212
1984267N31302 1984 85 NA NA HORTENSE 1984-09-28 06:00:00 TS 32.3000 -60.2000 35 996 hurdat_atl main 1323 1321 O_____________ hurdat_atl AL141984 32.3000 -60.2000 TS 35 996 0 7 223
1984267N31302 1984 85 NA NA HORTENSE 1984-09-28 09:00:00 TS 32.0152 -60.5703 main 1344 1344 P_____________ AL141984 32.0152 -60.5703 TS 37 996 0 9 229
1984267N31302 1984 85 NA NA HORTENSE 1984-09-28 12:00:00 TS 31.7000 -61.0000 40 996 hurdat_atl main 1366 1366 O_____________ hurdat_atl AL141984 31.7000 -61.0000 TS 40 996 0 9 227
1984267N31302 1984 85 NA NA HORTENSE 1984-09-28 15:00:00 TS 31.3923 -61.3573 main 1378 1378 P_____________ AL141984 31.3923 -61.3573 TS 40 996 0 8 225
1984267N31302 1984 85 NA NA HORTENSE 1984-09-28 18:00:00 TS 31.1000 -61.7000 40 997 hurdat_atl main 1379 1363 O_____________ hurdat_atl AL141984 31.1000 -61.7000 TS 40 997 0 8 225
1984267N31302 1984 85 NA NA HORTENSE 1984-09-28 21:00:00 TS 30.8123 -62.0425 main 1369 1346 P_____________ AL141984 30.8123 -62.0425 TS 42 997 0 8 230
1984267N31302 1984 85 NA NA HORTENSE 1984-09-29 00:00:00 TS 30.6000 -62.4000 45 998 hurdat_atl main 1346 1318 O_____________ hurdat_atl AL141984 30.6000 -62.4000 TS 45 998 0 7 245
1984267N31302 1984 85 NA NA HORTENSE 1984-09-29 03:00:00 TS 30.5049 -62.7923 main 1318 1285 P_____________ AL141984 30.5049 -62.7923 TS 45 998 0 7 262
1984267N31302 1984 85 NA NA HORTENSE 1984-09-29 06:00:00 TS 30.5000 -63.2000 45 999 hurdat_atl main 1285 1252 O_____________ hurdat_atl AL141984 30.5000 -63.2000 TS 45 999 0 7 271
1984267N31302 1984 85 NA NA HORTENSE 1984-09-29 09:00:00 TS 30.5199 -63.6075 main 1252 1213 P_____________ AL141984 30.5199 -63.6075 TS 45 1000 0 7 278
1984267N31302 1984 85 NA NA HORTENSE 1984-09-29 12:00:00 TS 30.6000 -64.0000 45 1001 hurdat_atl main 1213 1175 O_____________ hurdat_atl AL141984 30.6000 -64.0000 TS 45 1001 0 7 287
1984267N31302 1984 85 NA NA HORTENSE 1984-09-29 15:00:00 TS 30.7200 -64.3874 main 1175 1139 P_____________ AL141984 30.7200 -64.3874 TS 42 1001 0 7 297
1984267N31302 1984 85 NA NA HORTENSE 1984-09-29 18:00:00 TS 30.9000 -64.7000 40 1002 hurdat_atl main 1139 1111 O_____________ hurdat_atl AL141984 30.9000 -64.7000 TS 40 1002 0 6 311
1984267N31302 1984 85 NA NA HORTENSE 1984-09-29 21:00:00 TS 31.1049 -64.9099 main 1111 1086 P_____________ AL141984 31.1049 -64.9099 TS 40 1003 0 6 333
1984267N31302 1984 85 NA NA HORTENSE 1984-09-30 00:00:00 TS 31.4000 -65.0000 40 1004 hurdat_atl main 1086 1070 O_____________ hurdat_atl AL141984 31.4000 -65.0000 TS 40 1004 0 7 352
1984267N31302 1984 85 NA NA HORTENSE 1984-09-30 03:00:00 TS 31.7673 -65.0241 main 1065 1049 P_____________ AL141984 31.7673 -65.0241 TS 37 1005 0 9 5
1984267N31302 1984 85 NA NA HORTENSE 1984-09-30 06:00:00 TS 32.3000 -64.9000 35 1006 hurdat_atl main 1049 1035 O_____________ hurdat_atl AL141984 32.3000 -64.9000 TS 35 1006 0 13 13
1984267N31302 1984 85 NA NA HORTENSE 1984-09-30 09:00:00 TS 33.0239 -64.6898 main 1036 1011 P_____________ AL141984 33.0239 -64.6898 TS 35 1006 0 17 20
1984267N31302 1984 85 NA NA HORTENSE 1984-09-30 12:00:00 TS 33.9000 -64.2000 35 1007 hurdat_atl main 1005 958 O_____________ hurdat_atl AL141984 33.9000 -64.2000 TS 35 1007 0 22 32
1984267N31302 1984 85 NA NA HORTENSE 1984-09-30 15:00:00 TS 34.8503 -63.3287 main 954 905 P_____________ AL141984 34.8503 -63.3287 TS 35 1006 0 25 41
1984267N31302 1984 85 NA NA HORTENSE 1984-09-30 18:00:00 TS 35.8000 -62.2000 35 1006 hurdat_atl main 896 846 O_____________ hurdat_atl AL141984 35.8000 -62.2000 TS 35 1006 0 26 46
1984267N31302 1984 85 NA NA HORTENSE 1984-09-30 21:00:00 TS 36.6362 -61.0573 main 846 817 P_____________ AL141984 36.6362 -61.0573 TS 37 1005 0 25 50
1984267N31302 1984 85 NA NA HORTENSE 1984-10-01 00:00:00 TS 37.4000 -59.8000 40 1004 hurdat_atl main 821 812 O_____________ hurdat_atl AL141984 37.4000 -59.8000 TS 40 1004 0 26 54
1984267N31302 1984 85 NA NA HORTENSE 1984-10-01 03:00:00 TS 38.1288 -58.4428 main 819 784 P_____________ AL141984 38.1288 -58.4428 TS 42 1002 0 26 58
1984267N31302 1984 85 NA NA HORTENSE 1984-10-01 06:00:00 TS 38.8000 -57.0000 45 1001 hurdat_atl main 787 777 O_____________ hurdat_atl AL141984 38.8000 -57.0000 TS 45 1001 0 26 60
1984267N31302 1984 85 NA NA HORTENSE 1984-10-01 09:00:00 TS 39.4343 -55.5573 main 786 734 P_____________ AL141984 39.4343 -55.5573 TS 47 999 0 26 63
1984267N31302 1984 85 NA NA HORTENSE 1984-10-01 12:00:00 TS 40.0000 -54.0000 50 998 hurdat_atl main 734 682 O_____________ hurdat_atl AL141984 40.0000 -54.0000 TS 50 998 0 27 68
1984267N31302 1984 85 NA NA HORTENSE 1984-10-01 15:00:00 TS 40.4792 -52.2424 main 682 666 P_____________ AL141984 40.4792 -52.2424 TS 50 997 0 29 72
1984267N31302 1984 85 NA NA HORTENSE 1984-10-01 18:00:00 TS 40.9000 -50.4000 50 996 hurdat_atl main 672 669 O_____________ hurdat_atl AL141984 40.9000 -50.4000 TS 50 996 0 29 73
1984267N31302 1984 85 NA NA HORTENSE 1984-10-01 21:00:00 TS 41.3190 -48.6132 main 693 692 P_____________ AL141984 41.3190 -48.6132 TS 50 995 0 28 74
1984267N31302 1984 85 NA NA HORTENSE 1984-10-02 00:00:00 TS 41.7000 -46.8000 50 995 hurdat_atl main 744 744 O_____________ hurdat_atl AL141984 41.7000 -46.8000 TS 50 995 0 28 76
1984267N31302 1984 85 NA NA HORTENSE 1984-10-02 03:00:00 TS 42.0193 -44.9275 main 832 832 P_____________ AL141984 42.0193 -44.9275 TS 50 995 0 29 78
1984267N31302 1984 85 NA NA HORTENSE 1984-10-02 06:00:00 TS 42.3000 -43.0000 50 995 hurdat_atl main 933 933 O_____________ hurdat_atl AL141984 42.3000 -43.0000 TS 50 995 0 29 79
1984267N31302 1984 85 NA NA HORTENSE 1984-10-02 09:00:00 TS 42.5623 -41.0136 main 1052 1052 P_____________ AL141984 42.5623 -41.0136 TS 50 995 0 30 80
1984267N31302 1984 85 NA NA HORTENSE 1984-10-02 12:00:00 TS 42.8000 -39.0000 50 995 hurdat_atl main 1181 1181 O_____________ hurdat_atl AL141984 42.8000 -39.0000 TS 50 995 0 30 81
1984267N31302 1984 85 NA NA HORTENSE 1984-10-02 15:00:00 TS 43.0140 -36.9976 main 1312 1312 P_____________ AL141984 43.0140 -36.9976 TS 47 995 0 29 82
1984267N31302 1984 85 NA NA HORTENSE 1984-10-02 18:00:00 TS 43.2000 -35.0000 45 996 hurdat_atl main 1446 O_____________ hurdat_atl AL141984 43.2000 -35.0000 TS 45 996 0 29 83

IBTrACS Databaseについて

本データベースは、米国NOAAが公開する1842年以降の世界の熱帯低気圧のベストトラックデータアーカイブInternational Best Track Archive for Climate Stewardship (IBTrACS)を、ウェブで閲覧しやすい形式に変換したものです。

最終更新日:2021-12-03